Currently 76°F in Anza, California, USA
76°F
87°F / 62°F
9 mph W
0.00"
Sunday, September 23, 2018 6:43 PM PDT

Anza, California Weather Summary
Last 36 Hours

Temperature Winds Hourly Humidity Dewpoint
Time Report Norm Report Norm Max Gusts Precip. Rpt. Norm Rpt. Norm Pressure
1Sun 06:43 PM  75.6°F  72°F  9 mph W  6 mph  14 mph  0.00"  31%  47%  42°F  50°F  N/A
Sun 06:00 PM  79.4°F  75°F  10 mph NW  9 mph  18 mph  0.00"  29%  41%  44°F  49°F  N/A
Sun 05:00 PM  82.0°F  78°F  calm  9 mph  24 mph  0.00"  26%  36%  43°F  48°F  N/A
Sun 04:00 PM  83.5°F  79°F  16 mph W  10 mph  22 mph  0.00"  27%  33%  45°F  47°F  N/A
Sun 03:00 PM  85.5°F  80°F  14 mph W  9 mph  22 mph  0.00"  27%  32%  46°F  46°F  N/A
Sun 02:00 PM  86.7°F  80°F  11 mph W  9 mph  25 mph  0.00"  28%  31%  49°F  46°F  N/A
Sun 01:00 PM  87.4°F  80°F  14 mph W  9 mph  21 mph  0.00"  30%  31%  51°F  45°F  N/A
2Sun 12:58 PM  87.5°F  80°F  6 mph NW  9 mph  21 mph  ----  30%  31%  51°F  46°F  N/A
Sun 12:00 PM  86.0°F  79°F  13 mph W  9 mph  21 mph  0.00"  31%  33%  51°F  46°F  N/A
Sun 11:00 AM  84.7°F  77°F  7 mph NW  9 mph  14 mph  0.00"  31%  34%  50°F  46°F  N/A
Sun 10:00 AM  81.2°F  75°F  9 mph NW  8 mph  13 mph  0.00"  36%  37%  51°F  47°F  N/A
Sun 09:00 AM  76.7°F  72°F  7 mph NW  6 mph  11 mph  0.00"  45%  43%  53°F  48°F  N/A
Sun 08:00 AM  71.6°F  66°F  5 mph NW  5 mph  11 mph  0.00"  52%  55%  52°F  49°F  N/A
Sun 07:00 AM  65.2°F  57°F  3 mph SW  4 mph  7 mph  0.00"  61%  66%  51°F  46°F  N/A
Sun 06:00 AM  65.8°F  57°F  calm  3 mph  none  0.00"  62%  67%  52°F  46°F  N/A
Sun 05:00 AM  65.9°F  57°F  calm  3 mph  none  0.00"  58%  67%  50°F  46°F  N/A
Sun 04:00 AM  68.4°F  57°F  calm  3 mph  7 mph  0.00"  60%  67%  54°F  46°F  N/A
Sun 03:00 AM  69.6°F  57°F  4 mph W  3 mph  8 mph  0.00"  54%  68%  51°F  46°F  N/A
Sun 02:00 AM  63.8°F  57°F  5 mph NE  4 mph  6 mph  0.00"  61%  68%  50°F  47°F  N/A
3Sun 01:52 AM  62.5°F  57°F  4 mph S  4 mph  6 mph  ----  62%  68%  49°F  47°F  N/A
Sun 01:00 AM  68.1°F  58°F  3 mph S  4 mph  7 mph  0.00"  59%  68%  52°F  47°F  N/A
Sun 12:00 AM  65.9°F  59°F  5 mph NW  4 mph  7 mph  0.00"  61%  68%  52°F  48°F  N/A
Sat 11:00 PM  69.2°F  60°F  4 mph S  5 mph  6 mph  0.00"  55%  66%  52°F  48°F  N/A
Sat 10:00 PM  70.5°F  61°F  calm  4 mph  none  0.00"  56%  64%  53°F  48°F  N/A
Sat 09:00 PM  71.9°F  63°F  calm  4 mph  9 mph  0.00"  52%  61%  53°F  49°F  N/A
Sat 08:00 PM  74.1°F  66°F  calm  5 mph  none  0.00"  49%  57%  53°F  50°F  N/A
Sat 07:00 PM  78.4°F  70°F  calm  6 mph  16 mph  0.00"  45%  50%  54°F  50°F  N/A
Sat 06:00 PM  81.9°F  75°F  12 mph W  9 mph  20 mph  0.00"  34%  41%  50°F  49°F  N/A
Sat 05:00 PM  86.5°F  78°F  15 mph W  9 mph  20 mph  0.00"  28%  37%  49°F  49°F  N/A
Sat 04:00 PM  89.2°F  80°F  15 mph W  10 mph  19 mph  0.00"  26%  34%  49°F  48°F  N/A
Sat 03:00 PM  89.8°F  80°F  5 mph NW  9 mph  14 mph  0.00"  28%  33%  51°F  47°F  N/A
Sat 02:00 PM  89.3°F  80°F  8 mph SW  10 mph  16 mph  0.00"  27%  32%  50°F  47°F  N/A
Sat 01:00 PM  86.5°F  80°F  8 mph S  9 mph  14 mph  0.00"  30%  31%  50°F  46°F  N/A
Sat 12:00 PM  87.3°F  79°F  10 mph S  9 mph  15 mph  0.00"  32%  32%  53°F  46°F  N/A
Sat 11:00 AM  86.3°F  78°F  calm  9 mph  13 mph  0.00"  33%  34%  53°F  46°F  N/A
Sat 10:00 AM  85.1°F  76°F  2 mph S  8 mph  9 mph  0.00"  29%  38%  48°F  47°F  N/A
Sat 09:00 AM  80.8°F  72°F  1 mph SW  7 mph  4 mph  0.00"  47%  43%  58°F  48°F  N/A
Sat 08:00 AM  69.5°F  66°F  calm  5 mph  4 mph  0.00"  66%  55%  57°F  49°F  N/A
Sat 07:00 AM  57.9°F  58°F  calm  4 mph  5 mph  0.00"  84%  66%  53°F  46°F  N/A

  1. Current weather data. No green row appears if the current weather data is also the high or low for the current day.
  2. High temperature for the current day.
  3. Low temperature for the current day.

The Anza, California weather pages are a service of WeatherCurrents. The Anza Valley is southwestern Riverside County, east of Temecula and Aguanga, south of Mount San Jacinto and west of Mount Santa Rosa.
Copyright ©Sun Sep 23 18:44:34 PDT 2018  WeatherCurrents. All rights reserved. - Submit questions and comments - Privacy Policy

This page automatically refreshes every 10 minutes.